Time;durP1;ratioP1;P1;durP2;ratioP2;P2;SDS_P1;SDS_P2;PMS_P1;PMS_P2;Temp;Humidity;BMP_temperature;BMP_pressure;BME280_temperature;BME280_humidity;BME280_pressure;Samples;Min_cycle;Max_cycle;Signal;HPM_P1;HPM_P2
2022/09/27 00:00:40;;;;;;;4.97;4.57;;;30.40;52.10;;;;;;5124661;27;20480;-66
2022/09/27 00:03:12;;;;;;;5.43;5.03;;;30.30;53.90;;;;;;5125432;27;20551;-67
2022/09/27 00:05:42;;;;;;;4.77;4.40;;;30.20;52.90;;;;;;5144755;27;20506;-66
2022/09/27 00:08:13;;;;;;;4.67;4.27;;;30.20;52.20;;;;;;5145472;27;20477;-67
2022/09/27 00:10:46;;;;;;;4.97;4.60;;;30.20;54.10;;;;;;5131870;27;20445;-68
2022/09/27 00:13:17;;;;;;;4.80;4.40;;;30.20;51.70;;;;;;5123893;27;20473;-67
2022/09/27 00:15:47;;;;;;;4.90;4.47;;;30.10;52.30;;;;;;5122670;27;20579;-67
2022/09/27 00:18:18;;;;;;;4.87;4.40;;;29.90;53.20;;;;;;5123837;27;20487;-67
2022/09/27 00:20:49;;;;;;;5.07;4.67;;;29.70;56.90;;;;;;5111089;27;20490;-67
2022/09/27 00:23:20;;;;;;;5.30;4.87;;;29.70;55.40;;;;;;5129406;27;20495;-68
2022/09/27 00:26:00;;;;;;;5.63;5.20;;;29.60;55.40;;;;;;5126811;27;20549;-67
2022/09/27 00:28:31;;;;;;;4.43;4.13;;;29.50;57.00;;;;;;5125966;27;20458;-66
2022/09/27 00:31:02;;;;;;;5.20;4.80;;;29.60;57.00;;;;;;5131210;27;20467;-67
2022/09/27 00:33:33;;;;;;;5.90;4.57;;;29.60;54.90;;;;;;5133145;27;20515;-68
2022/09/27 00:36:06;;;;;;;5.00;4.50;;;29.70;56.00;;;;;;5127727;27;20530;-66
2022/09/27 00:38:38;;;;;;;5.33;4.90;;;29.90;54.20;;;;;;5124123;27;20511;-67
2022/09/27 00:41:15;;;;;;;5.83;4.20;;;29.80;56.50;;;;;;5138078;27;20483;-66
2022/09/27 00:43:48;;;;;;;5.07;4.57;;;29.60;58.10;;;;;;5138280;27;20435;-67
2022/09/27 00:46:27;;;;;;;5.27;4.87;;;29.40;56.30;;;;;;5112390;27;20466;-67
2022/09/27 00:49:06;;;;;;;5.00;4.60;;;29.30;58.00;;;;;;5108590;27;20475;-66
2022/09/27 00:51:39;;;;;;;5.83;5.00;;;29.20;56.40;;;;;;5114536;27;20829;-66
2022/09/27 00:54:12;;;;;;;5.40;4.77;;;29.00;60.00;;;;;;5135716;27;20466;-66
2022/09/27 00:56:45;;;;;;;4.50;4.20;;;29.00;56.50;;;;;;5120794;27;20614;-67
2022/09/27 00:59:21;;;;;;;5.33;4.93;;;28.90;57.70;;;;;;5128013;27;20448;-68
2022/09/27 01:01:52;;;;;;;5.40;4.97;;;28.90;58.40;;;;;;5128781;27;20465;-67
2022/09/27 01:04:25;;;;;;;5.47;4.90;;;28.80;61.10;;;;;;5136908;27;20508;-69
2022/09/27 01:06:56;;;;;;;5.60;5.10;;;28.70;58.30;;;;;;5135445;27;20459;-70
2022/09/27 01:09:27;;;;;;;5.13;4.73;;;28.60;58.80;;;;;;5142304;27;20451;-70
2022/09/27 01:12:07;;;;;;;5.47;5.07;;;28.30;59.40;;;;;;5116509;27;20464;-66
2022/09/27 01:15:00;;;;;;;4.63;4.30;;;28.20;60.50;;;;;;5130975;27;20505;-66
2022/09/27 01:17:45;;;;;;;4.50;4.10;;;28.10;60.10;;;;;;5131755;27;20566;-66
2022/09/27 01:20:58;;;;;;;5.37;4.87;;;28.10;61.30;;;;;;5138917;27;20503;-69
2022/09/27 01:23:54;;;;;;;5.97;5.37;;;28.00;62.70;;;;;;5136766;27;20501;-69
2022/09/27 01:26:43;;;;;;;5.53;5.03;;;27.90;62.50;;;;;;5122966;27;20459;-66
2022/09/27 01:29:27;;;;;;;5.40;4.90;;;27.70;62.00;;;;;;5145045;27;20829;-69
2022/09/27 01:32:06;;;;;;;5.47;4.87;;;27.60;65.70;;;;;;5123728;27;20465;-69
2022/09/27 01:34:45;;;;;;;5.63;5.13;;;27.40;66.10;;;;;;5133631;27;20460;-69
2022/09/27 01:37:23;;;;;;;5.43;5.03;;;27.20;68.40;;;;;;5144309;27;20450;-68
2022/09/27 01:40:02;;;;;;;5.33;4.63;;;27.00;68.10;;;;;;5134164;27;20498;-70
2022/09/27 01:42:38;;;;;;;4.80;4.37;;;26.90;71.20;;;;;;5123946;27;20457;-69
2022/09/27 01:45:15;;;;;;;5.93;5.43;;;26.70;74.00;;;;;;5143582;27;20942;-67
2022/09/27 01:47:52;;;;;;;6.50;5.90;;;26.50;74.40;;;;;;5132195;27;20460;-68
2022/09/27 01:50:27;;;;;;;5.67;5.17;;;26.30;74.90;;;;;;5125268;27;20469;-69
2022/09/27 01:53:06;;;;;;;5.43;4.93;;;26.00;76.30;;;;;;5112493;27;20449;-67
2022/09/27 01:55:39;;;;;;;6.70;6.10;;;25.80;79.50;;;;;;5131109;27;20468;-69
2022/09/27 01:58:15;;;;;;;6.33;5.33;;;25.60;79.50;;;;;;5115524;27;20550;-69
2022/09/27 02:00:50;;;;;;;6.33;5.80;;;25.30;83.40;;;;;;5141472;27;20560;-69
2022/09/27 02:03:26;;;;;;;5.90;5.40;;;25.10;83.90;;;;;;5121000;27;20943;-71
2022/09/27 02:06:02;;;;;;;5.80;5.20;;;24.90;84.40;;;;;;5120153;27;20541;-71
2022/09/27 02:08:38;;;;;;;7.20;6.50;;;24.80;86.00;;;;;;5132664;27;20816;-69
2022/09/27 02:11:12;;;;;;;6.50;5.90;;;24.80;82.70;;;;;;5131504;27;20487;-68
2022/09/27 02:13:49;;;;;;;6.20;5.60;;;24.80;81.60;;;;;;5140769;27;20520;-68
2022/09/27 02:16:29;;;;;;;6.33;5.73;;;24.80;81.10;;;;;;5139063;27;20462;-70
2022/09/27 02:19:08;;;;;;;6.07;5.57;;;24.80;83.20;;;;;;5143053;27;20839;-67
2022/09/27 02:21:45;;;;;;;6.80;6.10;;;24.50;86.60;;;;;;5132910;27;20883;-66
2022/09/27 02:24:22;;;;;;;8.03;6.10;;;24.30;89.70;;;;;;5128886;27;20551;-66
2022/09/27 02:27:01;;;;;;;5.97;5.53;;;24.10;90.50;;;;;;5120959;27;20485;-66
2022/09/27 02:29:39;;;;;;;6.83;6.30;;;23.90;90.80;;;;;;5111440;27;20462;-67
2022/09/27 02:32:10;;;;;;;6.50;5.90;;;23.70;91.90;;;;;;5130547;27;20933;-67
2022/09/27 02:34:44;;;;;;;7.40;6.40;;;23.60;92.90;;;;;;5132471;27;20444;-66
2022/09/27 02:37:15;;;;;;;6.53;5.03;;;23.50;94.10;;;;;;5111550;27;20487;-66
2022/09/27 02:39:46;;;;;;;7.13;6.53;;;23.20;94.20;;;;;;5125286;27;20449;-66
2022/09/27 02:42:17;;;;;;;6.90;6.20;;;23.20;94.60;;;;;;5119527;27;20497;-66
2022/09/27 02:44:48;;;;;;;6.83;6.17;;;23.10;95.00;;;;;;5120211;27;20459;-67
2022/09/27 02:47:38;;;;;;;7.30;6.70;;;23.10;95.70;;;;;;5124156;27;20455;-66
2022/09/27 02:50:32;;;;;;;7.43;6.80;;;23.10;96.70;;;;;;5123470;28;20524;-68
2022/09/27 02:53:11;;;;;;;7.10;6.40;;;22.90;96.70;;;;;;5135257;28;20444;-67
2022/09/27 02:55:51;;;;;;;7.17;6.50;;;22.90;98.00;;;;;;5117547;27;20546;-67
2022/09/27 02:58:35;;;;;;;6.97;6.27;;;22.80;98.60;;;;;;5140744;27;20532;-67
2022/09/27 03:01:11;;;;;;;7.80;7.10;;;22.70;99.80;;;;;;5137548;27;20902;-67
2022/09/27 03:03:51;;;;;;;8.27;7.47;;;22.60;99.60;;;;;;5127262;28;20544;-66
2022/09/27 03:06:24;;;;;;;8.07;6.80;;;22.60;99.70;;;;;;5139664;27;20483;-65
2022/09/27 03:08:57;;;;;;;7.70;7.00;;;22.60;99.70;;;;;;5140572;28;20505;-66
2022/09/27 03:11:28;;;;;;;7.77;6.97;;;22.60;99.90;;;;;;5125151;27;20462;-65
2022/09/27 03:13:58;;;;;;;7.70;7.00;;;22.50;99.90;;;;;;5125545;27;20459;-65
2022/09/27 03:16:38;;;;;;;8.30;7.50;;;22.40;99.90;;;;;;5134708;28;20444;-66
2022/09/27 03:19:09;;;;;;;9.57;8.57;;;22.30;99.90;;;;;;5136045;27;20450;-65
2022/09/27 03:21:43;;;;;;;9.30;8.40;;;22.30;99.90;;;;;;5133082;27;20461;-66
2022/09/27 03:24:14;;;;;;;8.03;6.97;;;22.20;99.90;;;;;;5139812;27;20457;-66
2022/09/27 03:26:45;;;;;;;10.00;7.83;;;22.20;99.90;;;;;;5128198;27;20453;-66
2022/09/27 03:29:16;;;;;;;8.00;7.20;;;22.10;99.90;;;;;;5138143;27;20491;-66
2022/09/27 03:31:46;;;;;;;9.17;8.37;;;22.10;99.90;;;;;;5124286;27;20457;-66
2022/09/27 03:34:17;;;;;;;8.10;7.40;;;22.00;99.90;;;;;;5120245;27;20466;-66
2022/09/27 03:36:50;;;;;;;7.70;6.90;;;22.00;99.90;;;;;;5114618;27;20458;-65
2022/09/27 03:39:20;;;;;;;7.67;6.97;;;21.90;99.90;;;;;;5118419;27;20441;-66
2022/09/27 03:41:51;;;;;;;7.43;6.70;;;21.80;99.90;;;;;;5125297;27;20504;-66
2022/09/27 03:44:22;;;;;;;7.90;7.10;;;21.80;99.90;;;;;;5142566;27;20803;-65
2022/09/27 03:46:53;;;;;;;7.70;6.67;;;21.70;99.90;;;;;;5115962;27;20526;-65
2022/09/27 03:49:24;;;;;;;6.93;6.23;;;21.60;99.90;;;;;;5124813;27;20519;-65
2022/09/27 03:51:56;;;;;;;7.63;6.20;;;21.60;99.90;;;;;;5140095;27;20506;-65
2022/09/27 03:54:27;;;;;;;6.87;6.17;;;21.60;99.90;;;;;;5123522;27;20514;-68
2022/09/27 03:56:58;;;;;;;7.40;6.47;;;21.60;99.90;;;;;;5123626;28;20430;-65
2022/09/27 03:59:29;;;;;;;6.67;6.07;;;21.60;99.90;;;;;;5125055;27;20453;-66
2022/09/27 04:02:01;;;;;;;6.07;5.57;;;21.50;99.90;;;;;;5106583;28;20565;-65
2022/09/27 04:04:32;;;;;;;7.57;6.80;;;21.50;99.90;;;;;;5121379;27;20472;-66
2022/09/27 04:07:05;;;;;;;6.60;6.00;;;21.40;99.90;;;;;;5134824;27;20537;-66
2022/09/27 04:09:36;;;;;;;9.13;6.50;;;21.40;99.90;;;;;;5128765;27;20446;-65
2022/09/27 04:12:13;;;;;;;6.53;5.83;;;21.30;99.90;;;;;;5114684;27;20461;-65
2022/09/27 04:14:44;;;;;;;7.87;7.07;;;21.20;99.90;;;;;;5130792;27;20498;-65
2022/09/27 04:17:17;;;;;;;7.70;6.90;;;21.10;99.90;;;;;;5130265;27;20576;-66
2022/09/27 04:19:51;;;;;;;7.37;6.17;;;21.00;99.90;;;;;;5126062;27;20462;-66
2022/09/27 04:22:24;;;;;;;7.23;6.17;;;20.90;99.90;;;;;;5116380;27;20553;-65
2022/09/27 04:24:54;;;;;;;8.17;7.00;;;20.90;99.90;;;;;;5105983;27;20582;-65
2022/09/27 04:27:25;;;;;;;7.53;5.83;;;20.80;99.90;;;;;;5120713;27;20455;-66
2022/09/27 04:29:56;;;;;;;7.30;5.97;;;20.80;99.90;;;;;;5120822;27;20454;-65
2022/09/27 04:32:27;;;;;;;6.20;5.60;;;20.70;99.90;;;;;;5126726;27;20517;-66
2022/09/27 04:37:46;;;;;;;6.10;5.50;;;20.50;99.90;;;;;;5129444;27;20460;-65
2022/09/27 04:40:18;;;;;;;6.03;5.43;;;20.50;99.90;;;;;;5123430;27;20462;-66
2022/09/27 04:42:49;;;;;;;6.67;5.97;;;20.40;99.90;;;;;;5121129;27;20479;-66
2022/09/27 04:45:20;;;;;;;5.47;4.67;;;20.40;99.90;;;;;;5119606;28;20519;-66
2022/09/27 04:47:51;;;;;;;5.70;5.03;;;20.40;99.90;;;;;;5130715;27;20810;-65
2022/09/27 04:50:22;;;;;;;5.70;5.20;;;20.30;99.90;;;;;;5125918;27;20564;-65
2022/09/27 04:52:55;;;;;;;5.03;4.60;;;20.30;99.90;;;;;;5119046;27;20453;-65
2022/09/27 04:55:26;;;;;;;6.23;5.10;;;20.30;99.90;;;;;;5116077;27;20440;-66
2022/09/27 04:57:57;;;;;;;6.10;5.10;;;20.30;99.90;;;;;;5127947;27;20523;-67
2022/09/27 05:00:29;;;;;;;6.40;5.80;;;20.20;99.90;;;;;;5118938;27;20462;-66
2022/09/27 05:03:00;;;;;;;6.13;5.50;;;20.20;99.90;;;;;;5116704;27;20566;-66
2022/09/27 05:05:31;;;;;;;6.87;6.17;;;20.10;99.90;;;;;;5108876;27;21000;-66
2022/09/27 05:08:03;;;;;;;6.27;5.67;;;20.10;99.90;;;;;;5111754;27;20466;-67
2022/09/27 05:10:34;;;;;;;5.83;5.17;;;20.00;99.90;;;;;;5113580;27;20443;-66
2022/09/27 05:13:05;;;;;;;6.20;5.60;;;20.00;99.90;;;;;;5125200;27;20445;-66
2022/09/27 05:15:36;;;;;;;5.77;5.27;;;20.00;99.90;;;;;;5130879;27;20472;-66
2022/09/27 05:18:07;;;;;;;6.23;5.73;;;19.90;99.90;;;;;;5117282;27;20900;-66
2022/09/27 05:20:38;;;;;;;6.10;5.30;;;19.80;99.90;;;;;;5118387;27;20457;-67
2022/09/27 05:23:11;;;;;;;6.20;5.03;;;19.70;99.90;;;;;;5131067;27;20515;-67
2022/09/27 05:25:42;;;;;;;6.70;5.50;;;19.70;99.90;;;;;;5123806;27;20458;-66
2022/09/27 05:28:13;;;;;;;6.30;5.53;;;19.60;99.90;;;;;;5137458;27;20437;-66
2022/09/27 05:30:44;;;;;;;5.77;5.17;;;19.50;99.90;;;;;;5121671;28;20440;-66
2022/09/27 05:33:15;;;;;;;6.23;5.50;;;19.50;99.90;;;;;;5103992;27;20485;-66
2022/09/27 05:35:53;;;;;;;5.80;5.20;;;19.50;99.90;;;;;;5119573;27;20495;-67
2022/09/27 05:38:26;;;;;;;5.63;5.00;;;19.50;99.90;;;;;;5120920;27;20459;-66
2022/09/27 05:40:56;;;;;;;6.70;5.50;;;19.40;99.90;;;;;;5120768;27;20493;-67
2022/09/27 05:43:27;;;;;;;6.20;5.33;;;19.40;99.90;;;;;;5122027;27;20488;-67
2022/09/27 05:45:59;;;;;;;7.30;6.13;;;19.30;99.90;;;;;;5135558;27;20510;-66
2022/09/27 05:48:30;;;;;;;5.37;4.90;;;19.20;99.90;;;;;;5120325;27;20452;-66
2022/09/27 05:51:01;;;;;;;5.53;4.90;;;19.20;99.90;;;;;;5113093;27;20463;-66
2022/09/27 05:53:33;;;;;;;6.40;5.80;;;19.20;99.90;;;;;;5117995;27;20479;-66
2022/09/27 05:56:05;;;;;;;6.33;4.83;;;19.20;99.90;;;;;;5138866;27;20486;-66
2022/09/27 05:58:36;;;;;;;6.00;5.40;;;19.20;99.90;;;;;;5130100;27;20492;-66
2022/09/27 06:01:08;;;;;;;5.77;4.60;;;19.20;99.90;;;;;;5138646;27;20507;-66
2022/09/27 06:03:40;;;;;;;8.47;5.20;;;19.20;99.90;;;;;;5138057;27;20816;-66
2022/09/27 06:06:10;;;;;;;5.60;4.97;;;19.10;99.90;;;;;;5142868;27;20420;-66
2022/09/27 06:08:44;;;;;;;6.03;5.43;;;19.00;99.90;;;;;;5115824;27;20500;-65
2022/09/27 06:11:16;;;;;;;6.37;5.50;;;19.10;99.90;;;;;;5131152;27;20459;-66
2022/09/27 06:13:46;;;;;;;6.43;5.70;;;19.00;99.90;;;;;;5143900;27;20444;-66
2022/09/27 06:16:17;;;;;;;6.30;5.60;;;19.00;99.90;;;;;;5142594;27;20452;-66
2022/09/27 06:18:48;;;;;;;7.13;5.03;;;18.90;99.90;;;;;;5120115;27;20444;-65
2022/09/27 06:21:19;;;;;;;6.27;5.67;;;18.90;99.90;;;;;;5143314;27;20424;-65
2022/09/27 06:23:51;;;;;;;6.00;5.40;;;18.80;99.90;;;;;;5143064;27;20455;-65
2022/09/27 06:26:23;;;;;;;6.03;5.37;;;18.70;99.90;;;;;;5141780;27;20423;-65
2022/09/27 06:28:54;;;;;;;7.40;6.00;;;18.70;99.90;;;;;;5143625;27;20412;-65
2022/09/27 06:31:25;;;;;;;6.80;5.57;;;18.70;99.90;;;;;;5142474;27;20516;-65
2022/09/27 06:33:55;;;;;;;6.40;5.50;;;18.70;99.90;;;;;;5139845;27;20448;-65
2022/09/27 06:36:26;;;;;;;6.23;5.63;;;18.60;99.90;;;;;;5116248;27;20453;-65
2022/09/27 06:39:00;;;;;;;8.07;5.57;;;18.50;99.90;;;;;;5134979;27;20557;-65
2022/09/27 06:41:32;;;;;;;6.27;5.67;;;18.50;99.90;;;;;;5115837;28;20504;-65
2022/09/27 06:44:03;;;;;;;6.93;5.47;;;18.40;99.90;;;;;;5124793;27;20549;-66
2022/09/27 06:46:34;;;;;;;6.20;5.60;;;18.40;99.90;;;;;;5136312;27;20909;-66
2022/09/27 06:49:05;;;;;;;8.70;5.77;;;18.40;99.90;;;;;;5124274;28;20608;-65
2022/09/27 06:51:35;;;;;;;6.50;5.60;;;18.40;99.90;;;;;;5126048;27;20489;-66
2022/09/27 06:54:08;;;;;;;7.83;6.13;;;18.30;99.90;;;;;;5121811;28;20478;-65
2022/09/27 06:56:39;;;;;;;9.97;5.57;;;18.30;99.90;;;;;;5123508;28;20427;-66
2022/09/27 07:01:57;;;;;;;7.23;6.07;;;18.10;99.90;;;;;;5108451;28;20445;-65
2022/09/27 07:04:28;;;;;;;6.07;5.47;;;18.10;99.90;;;;;;5136538;27;20493;-66
2022/09/27 07:06:59;;;;;;;6.50;5.30;;;18.10;99.90;;;;;;5131706;27;20480;-66
2022/09/27 07:09:31;;;;;;;6.70;6.00;;;18.00;99.90;;;;;;5116499;27;20494;-66
2022/09/27 07:12:02;;;;;;;5.73;5.00;;;18.00;99.90;;;;;;5123776;27;20481;-65
2022/09/27 07:14:34;;;;;;;8.80;6.20;;;17.90;99.90;;;;;;5128953;27;20490;-66
2022/09/27 07:17:05;;;;;;;6.40;5.17;;;17.90;99.90;;;;;;5133437;27;20898;-67
2022/09/27 07:19:36;;;;;;;5.40;4.90;;;17.80;99.90;;;;;;5125831;27;21069;-65
2022/09/27 07:22:07;;;;;;;7.27;6.57;;;17.80;99.90;;;;;;5129805;27;20440;-65
2022/09/27 07:24:39;;;;;;;5.90;5.30;;;17.80;99.90;;;;;;5135566;27;20528;-66
2022/09/27 07:27:10;;;;;;;6.23;5.60;;;17.80;99.90;;;;;;5125931;27;20432;-66
2022/09/27 07:29:42;;;;;;;6.83;5.80;;;17.70;99.90;;;;;;5125526;27;20435;-66
2022/09/27 07:32:12;;;;;;;6.90;6.20;;;17.70;99.90;;;;;;5135204;27;20821;-65
2022/09/27 07:34:43;;;;;;;6.73;6.13;;;17.50;99.90;;;;;;5132332;27;20915;-66
2022/09/27 07:37:14;;;;;;;5.97;4.80;;;17.60;99.90;;;;;;5123010;27;20458;-65
2022/09/27 07:39:46;;;;;;;7.40;6.27;;;17.50;99.90;;;;;;5138141;27;20427;-65
2022/09/27 07:42:17;;;;;;;6.20;5.60;;;17.50;99.90;;;;;;5132544;27;20560;-66
2022/09/27 07:44:48;;;;;;;6.67;5.07;;;17.50;99.90;;;;;;5133518;27;20472;-65
2022/09/27 07:47:20;;;;;;;6.80;6.10;;;17.40;99.90;;;;;;5138101;27;20457;-65
2022/09/27 07:49:50;;;;;;;7.50;6.10;;;17.40;99.90;;;;;;5126173;27;20431;-66
2022/09/27 07:52:21;;;;;;;5.53;5.03;;;17.50;99.90;;;;;;5127704;27;20440;-65
2022/09/27 07:54:54;;;;;;;6.97;6.03;;;17.40;99.90;;;;;;5108215;27;20508;-66
2022/09/27 07:57:24;;;;;;;7.00;5.50;;;17.30;99.90;;;;;;5128071;27;20865;-65
2022/09/27 07:59:55;;;;;;;7.43;6.67;;;17.30;99.90;;;;;;5126807;27;20553;-65
2022/09/27 08:02:26;;;;;;;6.53;5.93;;;17.20;99.90;;;;;;5131515;27;20534;-66
2022/09/27 08:04:57;;;;;;;6.40;5.80;;;17.30;99.90;;;;;;5135097;27;20486;-66
2022/09/27 08:07:28;;;;;;;8.47;6.70;;;17.20;99.90;;;;;;5135014;27;20439;-65
2022/09/27 08:10:00;;;;;;;5.93;5.33;;;17.20;99.90;;;;;;5143349;27;20509;-66
2022/09/27 08:12:31;;;;;;;6.07;5.50;;;17.20;99.90;;;;;;5125980;27;20939;-65
2022/09/27 08:15:03;;;;;;;6.63;5.73;;;17.10;99.90;;;;;;5136152;27;20469;-66
2022/09/27 08:17:34;;;;;;;7.60;6.10;;;17.10;99.90;;;;;;5126935;27;20473;-65
2022/09/27 08:20:06;;;;;;;9.80;6.93;;;17.10;99.90;;;;;;5115501;27;20483;-66
2022/09/27 08:22:42;;;;;;;5.80;5.20;;;17.10;99.90;;;;;;5141069;27;20956;-66
2022/09/27 08:25:14;;;;;;;8.13;5.90;;;17.00;99.90;;;;;;5137324;27;20568;-65
2022/09/27 08:27:55;;;;;;;7.10;5.47;;;17.00;99.90;;;;;;5129678;27;20442;-65
2022/09/27 08:30:26;;;;;;;7.57;6.20;;;16.80;99.90;;;;;;5142844;27;20426;-65
2022/09/27 08:32:58;;;;;;;5.87;5.23;;;16.80;99.90;;;;;;5117308;27;20521;-65
2022/09/27 08:35:29;;;;;;;9.33;6.10;;;16.70;99.90;;;;;;5120254;27;20486;-65
2022/09/27 08:38:01;;;;;;;6.37;5.70;;;16.70;99.90;;;;;;5130026;27;20877;-65
2022/09/27 08:40:46;;;;;;;7.00;6.17;;;16.70;99.90;;;;;;5122497;27;20508;-65
2022/09/27 08:43:29;;;;;;;5.50;5.00;;;16.70;99.90;;;;;;5124836;27;20461;-65
2022/09/27 08:46:14;;;;;;;8.07;6.30;;;16.70;99.90;;;;;;5134486;27;20540;-65
2022/09/27 08:48:48;;;;;;;7.70;6.90;;;16.60;99.90;;;;;;5126812;27;20435;-65
2022/09/27 08:51:22;;;;;;;7.80;5.40;;;16.60;99.90;;;;;;5131400;27;20490;-65
2022/09/27 08:53:58;;;;;;;9.57;6.40;;;16.60;99.90;;;;;;5105256;28;20462;-65
2022/09/27 08:56:31;;;;;;;8.27;6.90;;;16.60;99.90;;;;;;5121722;27;20510;-65
2022/09/27 08:59:12;;;;;;;7.47;5.90;;;16.50;99.90;;;;;;5135104;27;20545;-65
2022/09/27 09:01:43;;;;;;;8.27;6.60;;;16.50;99.90;;;;;;5116028;27;20441;-65
2022/09/27 09:04:20;;;;;;;5.33;4.83;;;16.40;99.90;;;;;;5121257;27;20490;-65
2022/09/27 09:07:03;;;;;;;7.77;6.70;;;16.40;99.90;;;;;;5125774;27;20536;-65
2022/09/27 09:09:44;;;;;;;6.23;5.23;;;16.40;99.90;;;;;;5124067;27;20462;-65
2022/09/27 09:12:46;;;;;;;6.87;6.17;;;16.40;99.90;;;;;;5120470;27;20519;-65
2022/09/27 09:15:32;;;;;;;9.60;6.60;;;16.40;99.90;;;;;;5131029;27;20466;-65
2022/09/27 09:18:19;;;;;;;8.77;6.23;;;16.40;99.90;;;;;;5115152;27;20526;-65
2022/09/27 09:21:03;;;;;;;6.70;5.70;;;16.50;99.90;;;;;;5121615;28;20986;-65
2022/09/27 09:23:58;;;;;;;6.27;5.57;;;16.40;99.90;;;;;;5115954;27;20462;-65
2022/09/27 09:26:41;;;;;;;6.00;5.47;;;16.40;99.90;;;;;;5118577;27;20423;-65
2022/09/27 09:29:37;;;;;;;6.20;5.60;;;16.30;99.90;;;;;;5110625;27;20454;-65
2022/09/27 09:32:19;;;;;;;7.90;6.90;;;16.30;99.90;;;;;;5134649;27;20762;-65
2022/09/27 09:34:55;;;;;;;9.87;7.00;;;16.20;99.90;;;;;;5113851;27;20500;-65
2022/09/27 09:37:37;;;;;;;8.77;6.23;;;16.00;99.90;;;;;;5126092;27;20492;-65
2022/09/27 09:40:20;;;;;;;8.50;7.47;;;16.00;99.90;;;;;;5124069;27;20469;-64
2022/09/27 09:42:57;;;;;;;6.57;5.90;;;15.90;99.90;;;;;;5122266;27;20582;-65
2022/09/27 09:45:32;;;;;;;6.47;5.83;;;15.90;99.90;;;;;;5136834;27;20520;-64
2022/09/27 09:48:08;;;;;;;6.63;5.83;;;15.90;99.90;;;;;;5128659;27;20527;-64
2022/09/27 09:50:43;;;;;;;7.60;5.77;;;15.90;99.90;;;;;;5133736;27;20605;-65
2022/09/27 09:53:19;;;;;;;7.07;5.73;;;15.80;99.90;;;;;;5127603;27;20782;-65
2022/09/27 09:55:57;;;;;;;7.00;6.00;;;15.80;99.90;;;;;;5126649;27;20426;-64
2022/09/27 09:58:32;;;;;;;7.03;6.33;;;15.70;99.90;;;;;;5108402;27;20433;-64
2022/09/27 10:01:15;;;;;;;8.90;6.20;;;15.70;99.90;;;;;;5119190;27;20430;-65
2022/09/27 10:03:46;;;;;;;6.20;5.60;;;15.70;99.90;;;;;;5126788;27;20535;-65
2022/09/27 10:06:18;;;;;;;8.33;6.30;;;15.70;99.90;;;;;;5124573;27;20965;-66
2022/09/27 10:08:54;;;;;;;9.20;6.87;;;15.80;99.90;;;;;;5118626;27;20534;-66
2022/09/27 10:11:27;;;;;;;7.70;6.90;;;15.80;99.90;;;;;;5115879;28;20444;-65
2022/09/27 10:13:58;;;;;;;8.07;6.93;;;15.80;99.90;;;;;;5115460;27;20610;-65
2022/09/27 10:16:31;;;;;;;7.17;6.17;;;15.90;99.90;;;;;;5112341;27;20436;-65
2022/09/27 10:19:05;;;;;;;11.03;6.70;;;15.80;99.90;;;;;;5114660;27;20505;-65
2022/09/27 10:21:38;;;;;;;7.20;6.47;;;15.70;99.90;;;;;;5116267;27;20463;-65
2022/09/27 10:24:12;;;;;;;8.23;6.70;;;15.70;99.90;;;;;;5136346;27;20512;-66
2022/09/27 10:26:50;;;;;;;9.47;6.97;;;15.70;99.90;;;;;;5117920;27;20554;-67
2022/09/27 10:29:26;;;;;;;7.47;6.00;;;15.70;99.90;;;;;;5138665;27;20495;-66
2022/09/27 10:31:59;;;;;;;8.57;6.23;;;15.70;99.90;;;;;;5125751;27;20447;-66
2022/09/27 10:34:34;;;;;;;8.00;6.67;;;15.60;99.90;;;;;;5135002;27;20467;-66
2022/09/27 10:37:16;;;;;;;7.80;5.90;;;15.60;99.90;;;;;;5120553;28;20895;-66
2022/09/27 10:39:48;;;;;;;7.17;5.93;;;15.60;99.90;;;;;;5114105;27;20432;-64
2022/09/27 10:42:23;;;;;;;8.13;5.77;;;15.60;99.90;;;;;;5132715;27;20525;-64
2022/09/27 10:44:54;;;;;;;6.60;5.50;;;15.50;99.90;;;;;;5136217;27;20500;-65
2022/09/27 10:47:28;;;;;;;7.17;6.13;;;15.50;99.90;;;;;;5111617;27;20435;-64
2022/09/27 10:50:06;;;;;;;7.00;6.30;;;15.60;99.90;;;;;;5116457;28;20539;-65
2022/09/27 10:52:38;;;;;;;9.27;5.70;;;15.60;99.90;;;;;;5135113;27;20868;-65
2022/09/27 10:55:20;;;;;;;9.60;7.40;;;15.50;99.90;;;;;;5142527;27;20627;-64
2022/09/27 10:57:54;;;;;;;8.80;6.40;;;15.60;99.90;;;;;;5143406;27;20449;-65
2022/09/27 11:00:31;;;;;;;7.80;6.30;;;15.70;99.90;;;;;;5143072;27;20469;-65
2022/09/27 11:03:06;;;;;;;8.00;6.50;;;15.70;99.90;;;;;;5143003;27;20488;-65
2022/09/27 11:05:39;;;;;;;10.67;7.37;;;15.70;99.90;;;;;;5142834;27;20455;-65
2022/09/27 11:08:26;;;;;;;6.37;5.77;;;15.60;99.90;;;;;;5143154;27;20474;-65
2022/09/27 11:11:18;;;;;;;10.57;7.00;;;15.60;99.90;;;;;;5141375;27;20472;-65
2022/09/27 11:14:03;;;;;;;7.43;6.43;;;15.60;99.90;;;;;;5142638;27;20459;-65
2022/09/27 11:16:49;;;;;;;6.57;5.93;;;15.60;99.90;;;;;;5132143;28;20513;-65
2022/09/27 11:19:52;;;;;;;8.73;5.70;;;15.70;99.90;;;;;;5110783;28;20495;-64
2022/09/27 11:22:40;;;;;;;9.50;7.43;;;15.80;99.90;;;;;;5126466;28;20825;-65
2022/09/27 11:25:18;;;;;;;8.47;6.20;;;15.90;99.90;;;;;;5130869;27;20546;-65
2022/09/27 11:28:04;;;;;;;8.10;6.77;;;15.80;99.90;;;;;;5142678;27;20500;-65
2022/09/27 11:30:44;;;;;;;9.13;6.80;;;15.90;99.90;;;;;;5142498;27;20441;-64
2022/09/27 11:33:46;;;;;;;8.70;6.43;;;15.80;99.90;;;;;;5142783;27;20404;-64
2022/09/27 11:36:33;;;;;;;9.70;6.83;;;15.90;99.90;;;;;;5142151;27;20433;-65
2022/09/27 11:39:09;;;;;;;7.93;6.00;;;15.80;99.90;;;;;;5141965;27;20423;-65
2022/09/27 11:41:58;;;;;;;7.40;6.70;;;15.90;99.90;;;;;;5141086;27;20449;-65
2022/09/27 11:44:52;;;;;;;7.97;6.10;;;15.90;99.90;;;;;;5145085;27;20560;-65
2022/09/27 11:47:55;;;;;;;8.43;6.10;;;15.90;99.90;;;;;;5146008;27;20477;-65
2022/09/27 11:50:44;;;;;;;7.90;6.70;;;15.80;99.90;;;;;;5146019;27;20460;-64
2022/09/27 11:53:30;;;;;;;7.97;6.53;;;15.90;99.90;;;;;;5114625;27;20445;-65
2022/09/27 11:56:12;;;;;;;7.70;6.50;;;15.90;99.90;;;;;;5145360;27;20478;-65
2022/09/27 11:59:09;;;;;;;8.43;6.23;;;15.90;99.90;;;;;;5146342;27;20914;-65
2022/09/27 12:01:47;;;;;;;9.33;6.53;;;15.90;99.90;;;;;;5145513;27;20455;-65
2022/09/27 12:04:44;;;;;;;8.77;6.60;;;15.90;99.90;;;;;;5132160;27;20557;-65
2022/09/27 12:07:24;;;;;;;7.13;5.90;;;15.90;99.90;;;;;;5146146;27;20474;-65
2022/09/27 12:10:02;;;;;;;8.60;6.80;;;15.80;99.90;;;;;;5145227;27;20441;-65
2022/09/27 12:12:36;;;;;;;8.77;7.23;;;15.80;99.90;;;;;;5145628;27;20453;-65
2022/09/27 12:15:17;;;;;;;8.20;6.60;;;15.90;99.90;;;;;;5145755;27;20452;-65
2022/09/27 12:17:52;;;;;;;10.13;7.33;;;15.80;99.90;;;;;;5146073;27;20453;-65
2022/09/27 12:20:25;;;;;;;10.53;7.10;;;15.70;99.90;;;;;;5145295;27;20477;-65
2022/09/27 12:22:59;;;;;;;9.10;7.30;;;15.80;99.90;;;;;;5144788;27;20449;-65
2022/09/27 12:25:36;;;;;;;8.70;7.30;;;15.80;99.90;;;;;;5144812;27;20468;-66
2022/09/27 12:28:14;;;;;;;8.60;7.00;;;15.70;99.90;;;;;;5145915;27;20488;-65
2022/09/27 12:30:49;;;;;;;9.10;6.93;;;15.80;99.90;;;;;;5145448;27;20427;-65
2022/09/27 12:33:47;;;;;;;8.70;5.83;;;15.80;99.90;;;;;;5118196;27;20488;-65
2022/09/27 12:36:21;;;;;;;8.50;6.53;;;15.80;99.90;;;;;;5140981;27;20554;-64
2022/09/27 12:39:00;;;;;;;7.50;6.27;;;15.80;99.90;;;;;;5145283;27;20508;-65
2022/09/27 12:41:39;;;;;;;11.03;8.30;;;15.70;99.90;;;;;;5143983;27;20509;-65
2022/09/27 12:44:12;;;;;;;11.27;7.20;;;15.70;99.90;;;;;;5145364;27;20445;-65
2022/09/27 12:46:55;;;;;;;10.50;7.50;;;15.60;99.90;;;;;;5145066;27;20439;-65
2022/09/27 12:49:35;;;;;;;10.47;7.17;;;15.60;99.90;;;;;;5145216;27;20458;-65
2022/09/27 12:52:11;;;;;;;9.17;6.77;;;15.60;99.90;;;;;;5144847;27;20431;-65
2022/09/27 12:55:00;;;;;;;12.30;8.60;;;15.60;99.90;;;;;;5143039;27;20456;-65
2022/09/27 12:57:45;;;;;;;8.87;7.30;;;15.60;99.90;;;;;;5144853;27;20448;-65
2022/09/27 13:00:21;;;;;;;11.37;8.53;;;15.50;99.90;;;;;;5144919;27;20457;-64
2022/09/27 13:03:26;;;;;;;8.47;7.07;;;15.50;99.90;;;;;;5109855;27;20501;-65
2022/09/27 13:06:34;;;;;;;10.67;7.77;;;15.50;99.90;;;;;;5120062;27;20484;-65
2022/09/27 13:09:38;;;;;;;12.30;7.10;;;15.50;99.90;;;;;;5142984;27;20528;-65
2022/09/27 13:12:12;;;;;;;10.30;7.43;;;15.40;99.90;;;;;;5122363;27;20448;-65
2022/09/27 13:14:50;;;;;;;12.33;6.50;;;15.30;99.90;;;;;;5144580;27;20992;-65
2022/09/27 13:17:50;;;;;;;10.40;7.67;;;15.40;99.90;;;;;;5144514;27;20441;-65
2022/09/27 13:20:45;;;;;;;12.40;7.43;;;15.30;99.90;;;;;;5144213;27;20514;-65
2022/09/27 13:23:58;;;;;;;11.00;6.80;;;15.30;99.90;;;;;;5144608;27;20445;-65
2022/09/27 13:26:52;;;;;;;14.30;7.67;;;15.30;99.90;;;;;;5127808;27;20444;-65
2022/09/27 13:29:26;;;;;;;10.90;7.67;;;15.30;99.90;;;;;;5144755;27;20412;-65
2022/09/27 13:32:24;;;;;;;11.00;7.20;;;15.30;99.90;;;;;;5144477;27;20791;-65
2022/09/27 13:34:56;;;;;;;10.77;7.67;;;15.20;99.90;;;;;;5127626;27;20426;-65
2022/09/27 13:37:50;;;;;;;10.13;7.27;;;15.10;99.90;;;;;;5144357;27;20597;-65